Time;durP1;ratioP1;P1;durP2;ratioP2;P2;SDS_P1;SDS_P2;PMS_P1;PMS_P2;Temp;Humidity;BMP_temperature;BMP_pressure;BME280_temperature;BME280_humidity;BME280_pressure;Samples;Min_cycle;Max_cycle;Signal;HPM_P1;HPM_P2
2020/12/20 00:00:43;;;;;;;1.20;1.07;;;;;;;5.12;87.51;101555.84;5015030;28;20452;-67
2020/12/20 00:03:09;;;;;;;3.13;1.13;;;;;;;5.14;87.58;101556.44;5015511;28;20888;-67
2020/12/20 00:05:36;;;;;;;1.33;1.23;;;;;;;5.18;87.58;101554.91;5015582;28;20457;-66
2020/12/20 00:08:03;;;;;;;0.40;0.40;;;;;;;5.16;87.23;101551.63;5015435;28;20479;-66
2020/12/20 00:10:29;;;;;;;0.43;0.37;;;;;;;5.16;86.90;101550.81;5015008;28;20440;-67
2020/12/20 00:12:55;;;;;;;1.07;0.70;;;;;;;5.10;87.58;101547.25;5015069;28;21016;-67
2020/12/20 00:15:22;;;;;;;2.03;1.00;;;;;;;5.11;87.53;101543.50;5015378;28;20448;-66
2020/12/20 00:17:48;;;;;;;2.60;0.97;;;;;;;5.14;86.96;101536.84;5014789;28;20437;-66
2020/12/20 00:20:15;;;;;;;0.60;0.60;;;;;;;5.11;86.61;101540.81;5014848;28;20471;-66
2020/12/20 00:22:41;;;;;;;2.80;2.57;;;;;;;5.04;86.58;101543.63;5014721;28;21005;-67
2020/12/20 00:25:09;;;;;;;2.93;0.90;;;;;;;5.06;87.29;101543.41;5014915;28;20448;-66
2020/12/20 00:27:35;;;;;;;0.43;0.40;;;;;;;5.04;86.79;101542.81;5014778;28;20896;-64
2020/12/20 00:30:01;;;;;;;0.97;0.50;;;;;;;4.98;86.70;101533.03;5015185;28;20462;-66
2020/12/20 00:32:27;;;;;;;0.40;0.30;;;;;;;5.04;87.37;101540.94;5014772;28;20526;-67
2020/12/20 00:34:53;;;;;;;2.60;1.90;;;;;;;5.03;87.84;101533.94;5015146;28;20471;-66
2020/12/20 00:37:19;;;;;;;2.97;1.23;;;;;;;5.02;88.21;101544.94;5014667;28;20476;-66
2020/12/20 00:39:46;;;;;;;2.10;1.27;;;;;;;5.10;87.46;101541.88;5014654;28;20487;-67
2020/12/20 00:42:13;;;;;;;0.40;0.30;;;;;;;5.09;87.13;101550.97;5014551;28;21063;-67
2020/12/20 00:44:39;;;;;;;0.73;0.67;;;;;;;5.10;86.79;101557.97;5014540;28;20945;-67
2020/12/20 00:47:06;;;;;;;1.03;0.93;;;;;;;5.05;86.01;101545.28;5014738;28;20484;-66
2020/12/20 00:49:34;;;;;;;0.60;0.60;;;;;;;5.04;86.66;101551.69;5014787;28;20834;-67
2020/12/20 00:52:01;;;;;;;1.90;0.80;;;;;;;5.02;87.12;101545.75;5014390;28;20468;-66
2020/12/20 00:54:28;;;;;;;0.53;0.53;;;;;;;4.99;87.02;101553.47;5014714;28;20444;-67
2020/12/20 00:56:55;;;;;;;0.93;0.90;;;;;;;5.00;86.84;101555.09;5014643;28;20476;-67
2020/12/20 00:59:22;;;;;;;0.40;0.30;;;;;;;4.98;86.33;101559.88;5014624;28;20448;-66
2020/12/20 01:01:49;;;;;;;1.07;0.67;;;;;;;4.93;87.32;101557.91;5014164;28;20464;-67
2020/12/20 01:04:15;;;;;;;0.93;0.93;;;;;;;4.90;87.77;101563.75;5014524;28;20480;-67
2020/12/20 01:06:41;;;;;;;0.77;0.77;;;;;;;4.82;87.97;101550.72;5014062;28;20475;-67
2020/12/20 01:09:08;;;;;;;1.13;1.03;;;;;;;4.81;87.09;101546.41;5014260;28;20858;-66
2020/12/20 01:11:34;;;;;;;0.50;0.40;;;;;;;4.73;86.53;101549.47;5014292;28;20890;-67
2020/12/20 01:14:03;;;;;;;7.13;1.63;;;;;;;4.66;86.80;101557.66;5014458;28;20494;-67
2020/12/20 01:16:31;;;;;;;1.33;0.83;;;;;;;4.65;87.19;101550.66;5014375;28;20502;-67
2020/12/20 01:18:57;;;;;;;0.70;0.60;;;;;;;4.65;86.96;101548.00;5014311;28;20444;-65
2020/12/20 01:21:24;;;;;;;0.60;0.60;;;;;;;4.63;86.70;101554.63;5013757;28;20910;-66
2020/12/20 01:23:51;;;;;;;0.90;0.87;;;;;;;4.63;86.73;101547.41;5013995;28;20475;-67
2020/12/20 01:26:17;;;;;;;0.93;0.93;;;;;;;4.54;85.79;101559.56;5014115;28;20444;-66
2020/12/20 01:28:43;;;;;;;0.47;0.40;;;;;;;4.42;87.01;101551.50;5013073;28;20541;-66
2020/12/20 01:31:11;;;;;;;1.37;1.13;;;;;;;4.38;87.38;101549.53;5013709;28;20870;-65
2020/12/20 01:33:39;;;;;;;1.03;0.70;;;;;;;4.37;88.39;101547.91;5013461;28;20459;-67
2020/12/20 01:36:06;;;;;;;2.83;0.60;;;;;;;4.41;88.76;101543.72;5004517;28;20452;-65
2020/12/20 01:38:32;;;;;;;0.50;0.30;;;;;;;4.43;88.70;101547.00;4997133;28;20475;-67
2020/12/20 01:40:59;;;;;;;1.43;0.73;;;;;;;4.46;88.84;101543.81;4994240;28;20448;-66
2020/12/20 01:43:28;;;;;;;0.40;0.30;;;;;;;4.48;88.69;101545.22;4996896;28;20445;-66
2020/12/20 01:45:54;;;;;;;3.50;1.67;;;;;;;4.47;88.30;101532.88;5013480;28;20463;-65
2020/12/20 01:48:21;;;;;;;0.47;0.37;;;;;;;4.52;88.24;101537.53;5011228;28;20511;-66
2020/12/20 01:50:48;;;;;;;0.50;0.50;;;;;;;4.60;88.44;101547.84;4994139;28;20497;-65
2020/12/20 01:53:15;;;;;;;0.40;0.40;;;;;;;4.62;88.49;101535.03;5002312;28;20474;-66
2020/12/20 01:55:43;;;;;;;0.40;0.30;;;;;;;4.59;87.78;101540.88;5013701;28;20448;-67
2020/12/20 01:58:09;;;;;;;0.60;0.40;;;;;;;4.64;87.68;101532.91;5005316;28;20449;-70
2020/12/20 02:00:35;;;;;;;0.67;0.57;;;;;;;4.63;88.13;101533.97;5010035;28;20969;-66
2020/12/20 02:03:02;;;;;;;0.60;0.60;;;;;;;4.65;87.63;101531.88;4993558;28;20508;-65
2020/12/20 02:05:28;;;;;;;1.17;0.77;;;;;;;4.66;87.80;101533.50;4998275;28;20455;-65
2020/12/20 02:07:55;;;;;;;1.07;0.80;;;;;;;4.65;87.34;101541.78;5013292;28;20515;-66
2020/12/20 02:10:21;;;;;;;0.53;0.50;;;;;;;4.61;87.59;101538.78;5012694;28;20464;-67
2020/12/20 02:12:47;;;;;;;0.40;0.30;;;;;;;4.70;86.94;101534.66;5013204;28;20472;-65
2020/12/20 02:15:14;;;;;;;0.70;0.70;;;;;;;4.68;87.71;101523.34;5007807;28;20473;-66
2020/12/20 02:17:40;;;;;;;2.67;1.13;;;;;;;4.69;87.11;101535.72;4993510;28;20951;-66
2020/12/20 02:20:06;;;;;;;0.50;0.50;;;;;;;4.75;86.97;101531.28;4997286;28;20440;-66
2020/12/20 02:22:34;;;;;;;1.47;1.37;;;;;;;4.76;86.92;101528.34;4994418;28;21076;-67
2020/12/20 02:25:00;;;;;;;2.63;0.80;;;;;;;4.74;86.20;101533.13;5008884;28;20452;-66
2020/12/20 02:27:26;;;;;;;2.97;2.67;;;;;;;4.76;86.16;101530.22;5013293;28;20523;-67
2020/12/20 02:29:53;;;;;;;0.53;0.53;;;;;;;4.76;85.34;101520.28;4999996;28;20449;-66
2020/12/20 02:32:19;;;;;;;1.13;0.87;;;;;;;4.77;85.88;101524.59;4997350;28;20903;-65
2020/12/20 02:34:45;;;;;;;0.70;0.70;;;;;;;4.79;86.14;101527.06;4996571;28;20443;-66
2020/12/20 02:37:11;;;;;;;1.77;0.70;;;;;;;4.79;85.58;101535.09;5013132;28;20468;-66
2020/12/20 02:39:41;;;;;;;0.73;0.73;;;;;;;4.85;86.21;101527.97;5000976;28;20449;-65
2020/12/20 02:42:07;;;;;;;4.90;0.60;;;;;;;4.82;86.16;101523.88;5011926;28;20467;-67
2020/12/20 02:44:33;;;;;;;0.87;0.80;;;;;;;4.92;86.21;101521.41;5004762;28;20484;-67
2020/12/20 02:46:59;;;;;;;1.23;0.97;;;;;;;4.85;86.02;101517.22;5011419;28;20952;-66
2020/12/20 02:49:26;;;;;;;1.53;1.23;;;;;;;4.87;86.10;101509.72;5016572;28;20456;-68
2020/12/20 02:51:52;;;;;;;2.43;1.57;;;;;;;4.92;85.89;101512.53;5016737;28;20503;-67
2020/12/20 02:54:18;;;;;;;1.33;1.20;;;;;;;4.94;85.52;101510.41;5016531;28;20448;-65
2020/12/20 02:56:45;;;;;;;0.40;0.30;;;;;;;4.92;86.16;101515.22;5016901;28;20448;-67
2020/12/20 02:59:11;;;;;;;0.50;0.50;;;;;;;4.98;86.28;101525.00;5016021;28;20444;-65
2020/12/20 03:01:38;;;;;;;2.00;1.20;;;;;;;5.02;86.25;101528.81;5016268;28;20499;-67
2020/12/20 03:04:04;;;;;;;2.40;1.80;;;;;;;5.06;86.22;101536.16;5016576;28;20499;-66
2020/12/20 03:06:30;;;;;;;1.70;1.40;;;;;;;5.10;85.82;101539.19;5016832;28;20456;-67
2020/12/20 03:08:56;;;;;;;0.50;0.40;;;;;;;5.13;85.57;101536.00;5016089;28;20511;-65
2020/12/20 03:11:23;;;;;;;0.60;0.50;;;;;;;5.10;85.42;101543.75;5016371;28;20507;-66
2020/12/20 03:13:50;;;;;;;0.40;0.30;;;;;;;5.04;84.57;101540.13;5016185;28;20443;-66
2020/12/20 03:16:16;;;;;;;0.50;0.40;;;;;;;5.04;84.85;101537.44;5015981;28;20506;-67
2020/12/20 03:18:42;;;;;;;3.33;1.27;;;;;;;4.97;84.70;101542.16;5015883;28;20968;-67
2020/12/20 03:21:08;;;;;;;0.40;0.30;;;;;;;4.92;85.68;101542.06;5015716;28;20969;-67
2020/12/20 03:23:35;;;;;;;1.53;1.30;;;;;;;4.88;85.78;101538.22;5015879;28;20853;-67
2020/12/20 03:26:01;;;;;;;1.33;0.83;;;;;;;4.86;85.72;101545.69;5016056;28;20970;-65
2020/12/20 03:28:27;;;;;;;0.40;0.30;;;;;;;4.84;85.99;101545.94;5015454;28;20523;-69
2020/12/20 03:30:54;;;;;;;0.87;0.63;;;;;;;4.72;84.85;101529.88;5015934;28;20443;-67
2020/12/20 03:33:20;;;;;;;0.50;0.40;;;;;;;4.65;86.05;101537.25;5016248;28;20501;-67
2020/12/20 03:35:46;;;;;;;1.70;0.70;;;;;;;4.71;85.93;101533.59;5015598;28;20480;-66
2020/12/20 03:38:13;;;;;;;1.77;1.67;;;;;;;4.66;85.98;101535.38;5015950;28;20444;-68
2020/12/20 03:40:39;;;;;;;1.37;0.90;;;;;;;4.60;86.12;101528.25;5015811;28;20452;-68
2020/12/20 03:43:05;;;;;;;1.97;1.87;;;;;;;4.54;86.34;101522.81;5015118;28;21035;-70
2020/12/20 03:45:31;;;;;;;0.40;0.30;;;;;;;4.52;86.77;101522.25;5016227;28;20454;-69
2020/12/20 03:47:58;;;;;;;0.87;0.87;;;;;;;4.53;86.77;101531.91;5015019;28;20480;-69
2020/12/20 03:50:24;;;;;;;0.80;0.73;;;;;;;4.48;87.09;101536.38;5015299;28;20448;-66
2020/12/20 03:52:50;;;;;;;4.77;1.67;;;;;;;4.50;87.13;101535.06;5000632;28;20889;-68
2020/12/20 03:55:17;;;;;;;3.50;3.20;;;;;;;4.56;87.69;101546.72;5002200;28;20881;-69
2020/12/20 03:57:43;;;;;;;0.40;0.30;;;;;;;4.58;87.37;101549.16;5015815;28;20498;-69
2020/12/20 04:00:09;;;;;;;0.43;0.43;;;;;;;4.63;87.02;101549.25;5015449;28;20451;-69
2020/12/20 04:02:35;;;;;;;0.40;0.30;;;;;;;4.65;87.09;101556.03;5015521;28;20479;-69
2020/12/20 04:05:03;;;;;;;2.00;0.93;;;;;;;4.68;87.03;101557.41;5015612;28;20444;-68
2020/12/20 04:07:29;;;;;;;4.93;3.00;;;;;;;4.66;86.52;101541.56;5015574;28;20484;-69
2020/12/20 04:09:56;;;;;;;0.50;0.47;;;;;;;4.64;87.18;101549.00;5015573;28;20444;-68
2020/12/20 04:12:22;;;;;;;0.83;0.83;;;;;;;4.72;87.31;101540.59;5015345;28;20456;-68
2020/12/20 04:14:48;;;;;;;2.00;0.70;;;;;;;4.74;87.31;101538.50;5015457;28;20452;-69
2020/12/20 04:17:14;;;;;;;0.40;0.30;;;;;;;4.78;86.76;101533.47;5015133;28;20481;-67
2020/12/20 04:19:41;;;;;;;0.50;0.40;;;;;;;4.78;86.56;101534.28;5015088;28;20968;-69
2020/12/20 04:22:08;;;;;;;0.50;0.50;;;;;;;4.80;86.40;101528.69;5015107;28;20834;-69
2020/12/20 04:24:34;;;;;;;3.83;2.40;;;;;;;4.74;86.65;101521.59;5014927;28;20825;-69
2020/12/20 04:27:00;;;;;;;1.17;0.80;;;;;;;4.65;86.65;101514.94;5015202;28;20448;-67
2020/12/20 04:29:26;;;;;;;0.50;0.50;;;;;;;4.60;86.64;101520.22;5015029;28;20796;-70
2020/12/20 04:31:52;;;;;;;1.67;1.57;;;;;;;4.45;85.41;101515.38;5015096;28;20506;-68
2020/12/20 04:34:18;;;;;;;0.60;0.60;;;;;;;4.39;85.89;101511.78;5015101;28;20440;-68
2020/12/20 04:36:45;;;;;;;1.13;0.73;;;;;;;4.37;86.37;101526.47;5015241;28;20448;-69
2020/12/20 04:39:12;;;;;;;1.07;0.90;;;;;;;4.38;86.93;101528.09;5014649;28;20448;-69
2020/12/20 04:41:38;;;;;;;0.40;0.30;;;;;;;4.35;86.93;101524.03;5014570;28;20483;-67
2020/12/20 04:44:04;;;;;;;2.10;1.13;;;;;;;4.34;86.10;101518.88;5014969;28;20519;-67
2020/12/20 04:46:32;;;;;;;9.17;1.17;;;;;;;4.39;86.28;101535.09;5014901;28;20476;-69
2020/12/20 04:49:00;;;;;;;0.50;0.50;;;;;;;4.40;86.28;101515.28;5014410;28;20479;-69
2020/12/20 04:51:28;;;;;;;1.20;1.10;;;;;;;4.43;86.68;101525.53;5014350;28;20499;-69
2020/12/20 04:53:58;;;;;;;2.87;0.70;;;;;;;4.45;87.29;101518.88;5014764;28;20487;-69
2020/12/20 04:56:28;;;;;;;3.13;1.13;;;;;;;4.54;87.25;101522.00;5014691;28;20479;-68
2020/12/20 04:58:56;;;;;;;2.93;1.40;;;;;;;4.50;87.59;101515.47;5014119;28;20949;-67
2020/12/20 05:01:22;;;;;;;1.90;0.60;;;;;;;4.54;87.48;101519.31;5013708;28;20464;-69
2020/12/20 05:03:48;;;;;;;1.03;0.93;;;;;;;4.54;86.83;101522.81;5013299;28;20462;-69
2020/12/20 05:06:15;;;;;;;0.40;0.30;;;;;;;4.54;87.22;101513.94;5014548;28;20447;-68
2020/12/20 05:08:41;;;;;;;0.70;0.70;;;;;;;4.52;87.00;101514.19;5013935;28;20533;-68
2020/12/20 05:11:08;;;;;;;0.77;0.67;;;;;;;4.49;87.06;101511.16;5013844;28;20448;-69
2020/12/20 05:13:41;;;;;;;2.50;1.07;;;;;;;4.51;87.16;101509.03;5014367;28;20439;-69
2020/12/20 05:16:07;;;;;;;0.50;0.40;;;;;;;4.55;87.28;101520.94;5013835;28;20452;-69
2020/12/20 05:18:33;;;;;;;0.40;0.30;;;;;;;4.51;87.30;101522.47;5014089;28;20471;-69
2020/12/20 05:21:00;;;;;;;1.13;0.97;;;;;;;4.53;87.34;101528.41;5014122;28;20794;-68
2020/12/20 05:23:29;;;;;;;0.40;0.20;;;;;;;4.51;87.16;101525.13;5015067;28;20830;-70
2020/12/20 05:26:05;;;;;;;0.57;0.57;;;;;;;4.51;87.16;101525.94;5013627;28;20523;-69
2020/12/20 05:28:32;;;;;;;0.40;0.30;;;;;;;4.45;86.61;101531.47;5013777;28;20482;-70
2020/12/20 05:31:07;;;;;;;0.93;0.73;;;;;;;4.49;85.41;101532.63;5013468;28;20824;-68
2020/12/20 05:33:34;;;;;;;0.67;0.43;;;;;;;4.44;84.30;101537.88;5013383;28;20953;-69
2020/12/20 05:36:01;;;;;;;2.87;2.67;;;;;;;4.39;85.50;101540.47;5013851;28;20483;-68
2020/12/20 05:38:27;;;;;;;1.77;1.33;;;;;;;4.37;85.64;101543.38;5013998;28;20563;-69
2020/12/20 05:40:54;;;;;;;0.40;0.30;;;;;;;4.37;85.60;101553.28;5013555;28;20447;-69
2020/12/20 05:43:24;;;;;;;4.87;1.13;;;;;;;4.34;85.80;101551.06;5013465;28;20445;-68
2020/12/20 05:45:50;;;;;;;0.40;0.37;;;;;;;4.20;85.32;101561.22;5012372;28;20944;-68
2020/12/20 05:48:20;;;;;;;0.40;0.30;;;;;;;4.17;85.77;101564.38;4993747;28;21040;-68
2020/12/20 05:50:51;;;;;;;2.50;1.57;;;;;;;4.10;86.79;101561.00;5006322;28;20506;-68
2020/12/20 05:53:22;;;;;;;1.43;1.13;;;;;;;4.10;87.19;101567.19;5013362;28;20479;-68
2020/12/20 05:55:49;;;;;;;1.63;1.20;;;;;;;4.13;87.80;101555.19;5013674;28;20570;-68
2020/12/20 05:58:16;;;;;;;0.40;0.30;;;;;;;4.11;88.41;101559.94;5013069;28;20468;-69
2020/12/20 06:00:44;;;;;;;0.40;0.30;;;;;;;4.09;88.57;101554.00;5012933;28;20988;-69
2020/12/20 06:03:10;;;;;;;1.20;0.73;;;;;;;4.05;88.58;101556.34;5013555;28;20475;-68
2020/12/20 06:05:39;;;;;;;0.60;0.40;;;;;;;4.05;88.76;101564.38;5013204;28;20477;-69
2020/12/20 06:08:07;;;;;;;0.50;0.50;;;;;;;4.03;88.61;101553.91;5012883;28;21017;-69
2020/12/20 06:10:38;;;;;;;0.50;0.40;;;;;;;4.01;88.92;101563.22;5013516;28;20549;-69
2020/12/20 06:13:07;;;;;;;0.50;0.47;;;;;;;3.97;88.75;101551.31;5012272;28;20897;-73
2020/12/20 06:15:36;;;;;;;1.13;1.03;;;;;;;3.89;89.40;101549.81;5012725;28;20451;-71
2020/12/20 06:18:09;;;;;;;0.70;0.63;;;;;;;3.86;89.56;101546.78;5012494;28;20448;-71
2020/12/20 06:20:49;;;;;;;0.40;0.30;;;;;;;3.83;89.47;101553.41;5009458;28;20467;-71
2020/12/20 06:23:19;;;;;;;0.70;0.50;;;;;;;3.81;89.56;101550.16;5012998;28;21009;-69
2020/12/20 06:25:47;;;;;;;14.67;1.83;;;;;;;3.65;90.11;101540.94;5013011;28;20892;-70
2020/12/20 06:28:17;;;;;;;0.40;0.30;;;;;;;3.64;90.07;101544.66;5013393;28;20476;-70
2020/12/20 06:30:43;;;;;;;0.87;0.87;;;;;;;3.58;89.58;101553.59;5012980;28;20514;-69
2020/12/20 06:33:16;;;;;;;1.63;1.43;;;;;;;3.58;88.68;101550.13;5012736;28;20472;-69
2020/12/20 06:35:45;;;;;;;6.50;2.20;;;;;;;3.50;87.92;101549.44;5013211;28;20433;-70
2020/12/20 06:38:13;;;;;;;0.70;0.70;;;;;;;3.34;89.32;101547.41;5011997;28;20496;-72
2020/12/20 06:40:43;;;;;;;0.50;0.40;;;;;;;3.30;90.19;101538.19;4993753;28;20473;-70
2020/12/20 06:43:11;;;;;;;5.90;1.40;;;;;;;3.27;90.14;101544.00;4994501;28;20465;-70
2020/12/20 06:45:43;;;;;;;0.80;0.80;;;;;;;3.25;90.70;101541.56;5013245;28;20444;-70
2020/12/20 06:48:10;;;;;;;3.70;1.57;;;;;;;3.26;91.25;101548.53;5012878;28;20516;-70
2020/12/20 06:50:48;;;;;;;1.37;1.10;;;;;;;3.25;90.06;101552.25;5013189;28;20436;-70
2020/12/20 06:53:16;;;;;;;0.50;0.40;;;;;;;3.27;90.12;101544.81;5012310;28;20463;-70
2020/12/20 06:55:42;;;;;;;3.20;1.10;;;;;;;3.24;89.85;101549.81;4993496;28;20459;-70
2020/12/20 06:58:11;;;;;;;0.40;0.40;;;;;;;3.23;90.23;101548.16;4994495;28;20491;-69
2020/12/20 07:00:57;;;;;;;0.40;0.30;;;;;;;3.28;91.48;101554.50;5006565;28;20523;-70
2020/12/20 07:03:40;;;;;;;0.63;0.60;;;;;;;3.31;92.18;101555.06;5006687;28;20456;-70
2020/12/20 07:06:15;;;;;;;0.80;0.50;;;;;;;3.35;92.02;101557.06;5013165;28;20431;-70
2020/12/20 07:08:41;;;;;;;1.73;1.63;;;;;;;3.40;91.42;101575.13;5012707;28;20534;-70
2020/12/20 07:11:20;;;;;;;0.53;0.50;;;;;;;3.44;91.46;101569.06;5012915;28;20483;-70
2020/12/20 07:13:51;;;;;;;0.70;0.50;;;;;;;3.41;91.45;101566.03;5012986;28;20527;-70
2020/12/20 07:16:19;;;;;;;0.97;0.97;;;;;;;3.46;91.34;101580.38;5012850;28;20932;-69
2020/12/20 07:18:56;;;;;;;1.00;0.97;;;;;;;3.44;91.19;101587.00;5012606;28;20471;-70
2020/12/20 07:21:58;;;;;;;1.00;0.80;;;;;;;3.42;91.62;101586.44;5012730;28;20530;-69
2020/12/20 07:24:26;;;;;;;3.50;0.80;;;;;;;3.41;91.64;101582.09;5012913;28;20439;-68
2020/12/20 07:26:56;;;;;;;1.23;0.67;;;;;;;3.41;91.67;101588.28;5015312;28;20517;-69
2020/12/20 07:29:22;;;;;;;0.60;0.50;;;;;;;3.48;91.29;101593.53;5016288;28;20483;-67
2020/12/20 07:31:51;;;;;;;0.40;0.30;;;;;;;3.45;91.20;101594.84;5016297;28;20503;-69
2020/12/20 07:34:17;;;;;;;5.60;1.30;;;;;;;3.34;90.52;101587.56;5016311;28;20428;-68
2020/12/20 07:36:44;;;;;;;2.63;2.07;;;;;;;3.34;90.34;101589.44;5016233;28;20541;-69
2020/12/20 07:39:11;;;;;;;0.40;0.30;;;;;;;3.34;90.40;101592.09;5016281;28;20496;-68
2020/12/20 07:41:37;;;;;;;0.40;0.30;;;;;;;3.42;91.10;101589.09;5016055;28;20470;-70
2020/12/20 07:44:05;;;;;;;3.87;2.07;;;;;;;3.41;91.12;101592.81;5015739;28;20475;-68
2020/12/20 07:46:32;;;;;;;1.23;1.13;;;;;;;3.35;90.05;101586.50;5016093;28;20439;-69
2020/12/20 07:49:08;;;;;;;0.57;0.40;;;;;;;3.36;89.15;101585.47;5015936;28;20515;-69
2020/12/20 07:51:35;;;;;;;5.03;1.70;;;;;;;3.29;89.62;101585.56;5015902;28;20464;-70
2020/12/20 07:54:06;;;;;;;6.23;0.70;;;;;;;3.22;90.68;101587.50;5015861;28;20447;-70
2020/12/20 07:56:35;;;;;;;2.30;1.03;;;;;;;3.22;90.82;101582.16;5015868;28;20441;-70
2020/12/20 07:59:04;;;;;;;3.13;1.63;;;;;;;3.21;89.98;101582.41;5015437;28;20452;-70
2020/12/20 08:01:30;;;;;;;0.40;0.30;;;;;;;3.13;89.45;101588.88;5015521;28;20522;-70
2020/12/20 08:04:07;;;;;;;4.53;1.53;;;;;;;3.14;90.67;101581.66;5015764;28;20479;-70
2020/12/20 08:06:35;;;;;;;0.40;0.30;;;;;;;3.21;90.00;101587.75;5015924;28;20435;-69
2020/12/20 08:09:04;;;;;;;2.10;2.00;;;;;;;3.18;90.24;101588.19;5015819;28;20519;-70
2020/12/20 08:11:31;;;;;;;0.80;0.80;;;;;;;3.22;89.89;101589.38;5015470;28;20500;-68
2020/12/20 08:14:00;;;;;;;1.57;1.37;;;;;;;3.17;90.51;101579.34;5015205;28;20443;-70
2020/12/20 08:16:28;;;;;;;4.50;1.47;;;;;;;3.23;90.67;101588.31;5015214;28;20471;-70
2020/12/20 08:18:59;;;;;;;1.13;0.63;;;;;;;3.23;91.18;101594.53;5015479;28;20440;-71
2020/12/20 08:21:50;;;;;;;1.77;1.07;;;;;;;3.33;91.01;101598.50;5015159;28;20543;-70
2020/12/20 08:24:18;;;;;;;1.60;1.50;;;;;;;3.42;90.78;101599.81;5015042;28;20436;-70
2020/12/20 08:26:45;;;;;;;1.80;1.70;;;;;;;3.45;91.23;101594.84;5015236;28;20455;-71
2020/12/20 08:29:17;;;;;;;2.23;1.90;;;;;;;3.50;91.44;101586.09;5014410;28;21020;-69
2020/12/20 08:31:44;;;;;;;0.43;0.37;;;;;;;3.47;91.69;101587.38;5014452;28;20511;-68
2020/12/20 08:34:15;;;;;;;0.50;0.50;;;;;;;3.53;91.47;101594.47;5014433;28;20962;-70
2020/12/20 08:36:43;;;;;;;3.90;1.20;;;;;;;3.54;91.18;101598.81;5014139;28;20456;-70
2020/12/20 08:39:09;;;;;;;7.30;1.90;;;;;;;3.61;91.04;101592.53;5014510;28;20448;-69
2020/12/20 08:41:35;;;;;;;9.20;1.50;;;;;;;3.63;91.18;101607.34;5015221;28;20468;-68
2020/12/20 08:44:06;;;;;;;1.43;1.33;;;;;;;3.67;91.26;101600.44;5014626;28;20463;-69
2020/12/20 08:46:35;;;;;;;2.87;2.67;;;;;;;3.76;90.91;101595.56;5014958;28;20443;-67
2020/12/20 08:49:20;;;;;;;5.00;0.50;;;;;;;3.85;90.19;101599.56;5014625;28;20479;-68
2020/12/20 08:51:48;;;;;;;0.90;0.50;;;;;;;3.83;90.25;101606.19;5013743;28;20472;-68
2020/12/20 08:54:24;;;;;;;5.30;1.07;;;;;;;3.82;90.57;101600.03;5013684;28;20463;-68
2020/12/20 08:56:57;;;;;;;0.40;0.40;;;;;;;3.93;90.47;101601.06;5014169;28;20929;-68
2020/12/20 08:59:31;;;;;;;0.50;0.50;;;;;;;3.94;90.17;101602.69;5014229;28;20432;-67
2020/12/20 09:01:59;;;;;;;0.73;0.60;;;;;;;4.01;89.72;101598.88;5014269;28;20468;-69
2020/12/20 09:04:26;;;;;;;0.40;0.40;;;;;;;4.09;89.45;101602.28;5009884;28;20452;-68
2020/12/20 09:07:01;;;;;;;1.67;1.27;;;;;;;4.14;89.38;101595.16;4994886;28;20440;-67
2020/12/20 09:09:27;;;;;;;2.00;1.53;;;;;;;4.18;89.32;101588.28;4999072;28;20482;-67
2020/12/20 09:11:53;;;;;;;2.20;1.27;;;;;;;4.25;88.85;101591.66;5014188;28;20514;-68
2020/12/20 09:14:20;;;;;;;2.80;1.77;;;;;;;4.32;88.71;101593.41;5014428;28;20470;-68
2020/12/20 09:16:46;;;;;;;3.80;2.57;;;;;;;4.41;88.52;101589.31;5014339;28;20447;-68
2020/12/20 09:19:14;;;;;;;0.40;0.30;;;;;;;4.44;88.08;101581.63;5014393;28;20440;-67
2020/12/20 09:21:41;;;;;;;10.30;1.13;;;;;;;4.52;87.79;101577.75;5014047;28;20472;-67
2020/12/20 09:24:07;;;;;;;1.50;1.40;;;;;;;4.48;88.19;101590.00;5000520;28;20984;-68
2020/12/20 09:26:34;;;;;;;1.60;1.00;;;;;;;4.50;87.94;101586.03;4994594;28;20460;-69
2020/12/20 09:29:07;;;;;;;2.20;1.03;;;;;;;4.57;87.54;101593.16;5005763;28;20520;-68
2020/12/20 09:31:33;;;;;;;4.70;1.83;;;;;;;4.56;87.23;101584.28;5013708;28;20514;-69
2020/12/20 09:34:02;;;;;;;2.57;1.20;;;;;;;4.68;87.23;101587.75;5003045;28;20449;-68
2020/12/20 09:36:31;;;;;;;1.63;0.50;;;;;;;4.77;87.18;101580.94;4994735;28;20500;-67
2020/12/20 09:39:01;;;;;;;0.80;0.80;;;;;;;4.85;86.51;101589.69;4994210;28;20445;-68
2020/12/20 09:41:28;;;;;;;2.80;1.23;;;;;;;4.90;86.36;101590.59;4994262;28;20476;-67
2020/12/20 09:43:55;;;;;;;1.03;0.83;;;;;;;4.99;85.35;101591.03;5002943;28;20452;-68
2020/12/20 09:46:23;;;;;;;2.77;2.47;;;;;;;5.05;84.41;101593.59;5013936;28;20873;-67
2020/12/20 09:48:50;;;;;;;0.80;0.80;;;;;;;5.12;84.60;101596.13;5011708;28;20554;-68
2020/12/20 09:51:17;;;;;;;0.80;0.63;;;;;;;5.22;84.17;101599.03;5013731;28;20491;-67
2020/12/20 09:53:44;;;;;;;0.87;0.50;;;;;;;5.36;83.67;101604.09;5010430;28;20816;-67
2020/12/20 09:56:10;;;;;;;1.73;1.63;;;;;;;5.46;82.92;101593.53;5013487;28;20476;-67
2020/12/20 09:58:36;;;;;;;2.47;1.67;;;;;;;5.54;82.64;101599.34;5013492;28;20440;-68
2020/12/20 10:01:03;;;;;;;1.80;1.70;;;;;;;5.61;82.62;101591.09;5013308;28;20444;-68
2020/12/20 10:03:29;;;;;;;0.70;0.70;;;;;;;5.75;81.98;101596.97;5013351;28;20448;-67
2020/12/20 10:05:56;;;;;;;0.40;0.30;;;;;;;5.89;81.74;101589.41;5013043;28;20486;-71
2020/12/20 10:08:23;;;;;;;4.13;2.77;;;;;;;5.92;81.37;101581.69;5013243;28;21019;-67
2020/12/20 10:10:51;;;;;;;1.93;1.17;;;;;;;5.99;80.43;101586.94;5013545;28;20451;-68
2020/12/20 10:13:17;;;;;;;1.20;0.83;;;;;;;6.07;80.76;101586.50;5012742;28;20468;-66
2020/12/20 10:15:45;;;;;;;1.03;0.37;;;;;;;6.09;79.75;101578.19;5013301;28;20850;-68
2020/12/20 10:18:11;;;;;;;2.33;2.23;;;;;;;6.21;79.68;101590.47;4995523;28;20477;-68
2020/12/20 10:20:37;;;;;;;0.70;0.60;;;;;;;6.34;79.11;101591.22;4993823;28;20437;-69
2020/12/20 10:23:04;;;;;;;0.80;0.63;;;;;;;6.32;78.83;101591.44;5009048;28;20471;-66
2020/12/20 10:25:30;;;;;;;2.07;1.00;;;;;;;6.34;78.27;101604.66;5013349;28;20436;-68
2020/12/20 10:27:58;;;;;;;2.07;1.30;;;;;;;6.40;78.51;101593.72;5012773;28;20657;-66
2020/12/20 10:30:25;;;;;;;2.30;2.10;;;;;;;6.48;78.60;101587.09;5013086;28;20960;-67
2020/12/20 10:32:52;;;;;;;2.13;1.50;;;;;;;6.48;77.94;101589.78;5012635;28;21272;-68
2020/12/20 10:35:19;;;;;;;1.03;0.60;;;;;;;6.65;78.22;101587.03;5013014;28;20490;-67
2020/12/20 10:37:45;;;;;;;1.50;0.90;;;;;;;6.74;77.73;101580.16;5000352;28;20448;-68
2020/12/20 10:40:11;;;;;;;3.43;2.23;;;;;;;6.74;77.18;101570.19;4992783;28;20456;-68
2020/12/20 10:42:38;;;;;;;3.23;1.13;;;;;;;6.74;77.86;101572.09;5002816;28;20503;-68
2020/12/20 10:45:05;;;;;;;0.77;0.77;;;;;;;6.76;77.58;101570.75;5012612;28;20470;-68
2020/12/20 10:47:31;;;;;;;0.50;0.40;;;;;;;6.88;76.66;101567.13;5010565;28;20457;-68
2020/12/20 10:49:58;;;;;;;8.77;1.30;;;;;;;6.96;76.25;101562.09;5012532;28;20471;-69
2020/12/20 10:52:24;;;;;;;0.60;0.40;;;;;;;7.01;75.75;101570.25;4999833;28;20473;-68
2020/12/20 10:54:50;;;;;;;2.20;1.00;;;;;;;7.08;76.43;101578.94;4992512;28;20977;-69
2020/12/20 10:57:16;;;;;;;2.20;1.97;;;;;;;7.13;75.00;101580.88;5003567;28;20448;-69
2020/12/20 10:59:42;;;;;;;2.47;2.30;;;;;;;7.19;75.03;101574.47;5004694;28;20966;-69
2020/12/20 11:02:09;;;;;;;9.77;2.30;;;;;;;7.26;75.51;101574.25;5002527;28;20484;-69
2020/12/20 11:04:36;;;;;;;0.60;0.60;;;;;;;7.31;75.29;101577.03;5015619;28;20830;-69
2020/12/20 11:07:03;;;;;;;0.40;0.30;;;;;;;7.34;75.08;101579.19;5015609;28;20476;-69
2020/12/20 11:09:29;;;;;;;2.40;1.10;;;;;;;7.37;74.22;101569.78;5015722;28;20578;-68
2020/12/20 11:11:56;;;;;;;0.70;0.70;;;;;;;7.49;74.21;101565.06;5015489;28;20844;-69
2020/12/20 11:14:24;;;;;;;0.80;0.80;;;;;;;7.56;73.62;101560.25;5015557;28;20447;-69
2020/12/20 11:16:51;;;;;;;2.97;1.27;;;;;;;7.63;73.91;101558.16;5015687;28;20451;-69
2020/12/20 11:19:20;;;;;;;0.70;0.70;;;;;;;7.75;73.42;101556.13;5015382;28;20498;-69
2020/12/20 11:21:50;;;;;;;2.07;1.97;;;;;;;7.83;73.19;101550.25;5040872;22;20491;-78
2020/12/20 11:24:17;;;;;;;0.40;0.33;;;;;;;7.88;72.15;101552.16;5029977;28;20439;-78
2020/12/20 11:26:44;;;;;;;0.50;0.40;;;;;;;7.98;72.28;101556.81;5039656;28;20984;-76
2020/12/20 11:29:10;;;;;;;1.80;1.03;;;;;;;7.90;72.12;101541.13;5022040;28;20838;-77
2020/12/20 11:31:37;;;;;;;2.57;0.53;;;;;;;7.95;71.73;101543.84;5016457;28;20451;-75
2020/12/20 11:34:06;;;;;;;1.70;1.53;;;;;;;7.82;71.93;101539.69;5016371;28;20428;-76
2020/12/20 11:36:33;;;;;;;3.33;1.50;;;;;;;7.53;72.83;101540.03;5017538;28;20476;-77